This is the latest recevied weather packets stored in our database for station/object LA1HSA-13. If no packets are shown the sender has not sent any weather packets the latest 10 day(s).
| Time | Temp. | Humidity | Pressure | Rain* | Wind** | Luminosity | Snow |
|---|---|---|---|---|---|---|---|
| 1777941603 | 2.22° C | 64% | 1006.9 hPa | 0 mm | - | - | - |
| 1777941004 | 2.22° C | 66% | 1006.8 hPa | 0 mm | - | - | - |
| 1777940403 | 1.67° C | 68% | 1006.8 hPa | 0 mm | - | - | - |
| 1777939803 | 2.22° C | 67% | 1006.9 hPa | 0 mm | - | - | - |
| 1777939203 | 2.22° C | 67% | 1006.6 hPa | 0 mm | - | - | - |
| 1777938603 | 2.78° C | 68% | 1006.8 hPa | 0 mm | - | - | - |
| 1777938003 | 2.78° C | 69% | 1006.9 hPa | 0 mm | - | - | - |
| 1777937403 | 2.78° C | 71% | 1006.8 hPa | 0 mm | - | - | - |
| 1777936804 | 2.78° C | 78% | 1006.7 hPa | 0 mm | - | - | - |
| 1777936203 | 2.78° C | 79% | 1006.8 hPa | 0 mm | - | - | - |
| 1777935603 | 2.22° C | 81% | 1006.7 hPa | 0 mm | - | - | - |
| 1777935003 | 2.22° C | 84% | 1006.7 hPa | 0 mm | - | - | - |
| 1777934403 | 2.22° C | 87% | 1006.7 hPa | 0 mm | - | - | - |
| 1777933804 | 2.22° C | 89% | 1006.7 hPa | 0 mm | - | - | - |
| 1777933203 | 2.78° C | 87% | 1006.7 hPa | 0 mm | - | - | - |
| 1777932603 | 3.33° C | 86% | 1006.5 hPa | 0 mm | - | - | - |
| 1777932022 | 2.78° C | 88% | 1006.3 hPa | 0 mm | - | - | - |
| 1777931404 | 3.33° C | 85% | 1006.3 hPa | 0 mm | - | - | - |
| 1777930803 | 3.89° C | 83% | 1006.2 hPa | 0 mm | - | - | - |
| 1777930203 | 4.44° C | 82% | 1006.1 hPa | 0 mm | - | - | - |
| 1777929603 | 3.89° C | 84% | 1005.9 hPa | 0 mm | - | - | - |
| 1777929003 | 4.44° C | 83% | 1005.6 hPa | 0 mm | - | - | - |
| 1777928403 | 4.44° C | 83% | 1005.8 hPa | 0 mm | - | - | - |
| 1777927803 | 4.44° C | 83% | 1005.8 hPa | 0 mm | - | - | - |
| 1777927204 | 4.44° C | 83% | 1005.7 hPa | 0 mm | - | - | - |
* Rain latest hour (hover to see other rain measurements)
** Current wind speed in m/s (hover to see current wind gust speed)